Tilton, South Dakota
Current Conditions -  °F | °C
As of 2:35 AM on Sunday 26 Oct 2014 (Local Time) from KSPF Reporting Station
Clear Clear  
Wind Chill: 73°   Ceiling: Unl
Heat Index: 73°   Visibility: 10mi
Dew Point: 32°   Wind: 17mph
Humidity: 22%   Direction: 230°SW
Pressure: 29.66"   Gusts: 39mph
Location:  44.253°N, 103.912°W
Report Text: KSPF 260835Z AUTO 23015G34KT 10SM CLR 23/00 A2966 RMK AO2
Loading
Personal Weather Stations






























Interactive Weather Map
Tropical Storm Tracking
New forecast layout! Learn more

10-Day Weather Forecast

Advertisements
Track Severe Weather on mobile